Terminal Aerodrome Forecast
Issued by NWS

Home | Current Version | Previous Version | Graphics & Text | Print | Product List | Glossary On
Versions: 1 2 3 4 5 6 7 8 9 10 11 12 13 14 15 16
947
FTUS43 KBIS 280215 AAB
TAFDIK
TAF AMD
KDIK 280215Z 2802/2824 33014G25KT P6SM SCT070 OVC200
     FM280400 32010KT P6SM BKN150
     FM282200 29007KT P6SM FEW090 SCT200=

USA.gov is the U.S. government's official web portal to all federal, state and local government web resources and services.